Ingeniero Ambrosio Taravella Airport
SACO : now visible

Airfield :











YOU CAN JOIN US ON...

 
LOGIN :

Register | Disclaimer

   EN    FR    IT 

 









Legend :    VFR   Marginal VFR   IFR   Intensive IFR   Very Intensive IFR
Visi :
Ceiling :
>= 8 km
>= 3000ft
5 to 8 km
1000 to 3000 ft
1500m to 5 km
500 to 1000 ft
800 to 1500m
200 to 500 ft
< 800m
< 200 ft
Symbols :   Thunderstorms  Fog  Heavy snow  Heavy precipitations  Wind > 20 kt






- Airport Elevation : 1604 ft
- IATA code : COR


SACO - Ingeniero Ambrosio Taravella

CURRENT METAR :
  • 071100Z 05003KT 9999 FEW050 SCT100 11/05 Q1027 NOSIG

EXPIRED METARs :
  • 071000Z 05004KT 9999 FEW050 SCT100 11/05 Q1027 NOSIG
  • 070900Z 07004KT CAVOK 11/04 Q1026 NOSIG

TAF TAF SACO
Valid from the 07 at 06:00 until the 08 at 06:00 UTC


070500Z 0706/0806 VRB03KT CAVOK TX22/0718Z TN08/0710Z
BECMG 0710/0712 05010KT
BECMG 0800/0802 34005KT



MET'MAP, your aeronautical weather chart ! - Copyright ORBIFLY December 2007 - Disclaimer

ORBIFLY MET'MAP TEAM :

Programming & Development : Alexandra Zaïnal
Concept & original design : Baudouin d'Aumeries
Assistance for programming : Marc-Olivier Méhu
Technical & hardware support : Manuel Goepfert

Contact : metmap@orbifly.com




SOURCES & CREDITS :

   NOAA       Earth
Advisory